Airfield :
LOGIN :

Register | Disclaimer

   EN    FR    IT 

 










Legend :    VFR   Marginal VFR   IFR   Intensive IFR   Very Intensive IFR
Visi :
Ceiling :
>= 8 km
>= 3000ft
5 to 8 km
1000 to 3000 ft
1500m to 5 km
500 to 1000 ft
800 to 1500m
200 to 500 ft
< 800m
< 200 ft
Symbols :   Thunderstorms  Fog  Heavy snow  Heavy precipitations  Wind > 20 kt
SIGMETs :     Misc.  Thunderstorms  Icing  Turbulence  Mountain Waves  Volcanic Ashes






- Airport Elevation : 17 ft
- IATA code : CPH


EKCH - København - Kastrup (Copenhagen)

CURRENT METAR :
  • 240650Z AUTO 23014KT 9999 -RA BKN015/// BKN043/// OVC057/// 07/06 Q1019 TEMPO BKN012

EXPIRED METARs :
  • 240620Z AUTO 23014KT 9999 -RA FEW018/// OVC064/// 07/05 Q1018 TEMPO BKN012
  • 240550Z AUTO 23014KT 9999 OVC076/// 08/05 Q1019 TEMPO BKN012
  • 240520Z AUTO 23014KT 9999 FEW035/// OVC062/// 08/05 Q1019 TEMPO BKN012
  • 240450Z AUTO 23014KT 9999 OVC086/// 08/05 Q1019 TEMPO BKN012
  • 240420Z AUTO 24015KT 9999 OVC041/// 08/05 Q1019 TEMPO BKN012

TAF TAF EKCH
Valid from the 24 at 06:00 until the 25 at 06:00 UTC


240507Z 2406/2506 23015KT 9999 BKN018
TEMPO 2406/2410 RA
TEMPO 2410/2418 4000 -RA BR BKN012
TEMPO 2418/2506 4000 RADZ BR BKN008



MET'MAP, your aeronautical weather chart ! - Copyright ORBIFLY December 2007 - Disclaimer

ORBIFLY MET'MAP TEAM :

Programming & Development : Alexandra Zaïnal
Concept & original design : Baudouin d'Aumeries
Assistance for programming : Marc-Olivier Méhu
Technical & hardware support : Manuel Goepfert

Contact : metmap@orbifly.com




SOURCES & CREDITS :

   NOAA